createdAt,value
2023-05-17T00:01:11.060Z,101489.66
2023-05-17T00:03:56.505Z,101492.13
2023-05-17T00:06:42.409Z,101489.53
2023-05-17T00:09:27.825Z,101489.56
2023-05-17T00:12:13.021Z,101486.66
2023-05-17T00:14:58.912Z,101492.75
2023-05-17T00:17:44.204Z,101497.41
2023-05-17T00:20:29.499Z,101489.56
2023-05-17T00:23:14.868Z,101488.91
2023-05-17T00:26:00.293Z,101488.53
2023-05-17T00:28:45.842Z,101497.09
2023-05-17T00:31:31.014Z,101499.94
2023-05-17T00:34:16.323Z,101503.78
2023-05-17T00:37:01.419Z,101503.88
2023-05-17T00:39:46.615Z,101513.50
2023-05-17T00:42:31.848Z,101501.44
2023-05-17T00:45:17.459Z,101501.63
2023-05-17T00:48:02.999Z,101508.41
2023-05-17T00:50:48.742Z,101525.34
2023-05-17T00:53:34.162Z,101517.69
2023-05-17T00:56:19.531Z,101522.97
2023-05-17T00:59:06.557Z,101538.56
2023-05-17T01:01:52.419Z,101535.53
2023-05-17T01:04:38.684Z,101537.25
2023-05-17T01:07:23.898Z,101524.91
2023-05-17T01:10:09.818Z,101516.19
2023-05-17T01:13:02.379Z,101523.41
2023-05-17T01:15:57.184Z,101525.72
2023-05-17T01:18:52.663Z,101535.84
2023-05-17T01:22:02.525Z,101535.78
2023-05-17T01:24:50.858Z,101535.16
2023-05-17T01:27:39.772Z,101532.97
2023-05-17T01:30:25.910Z,101533.22
2023-05-17T01:33:12.429Z,101536.16
2023-05-17T01:35:58.030Z,101527.19
2023-05-17T01:38:43.216Z,101528.06
2023-05-17T01:41:40.621Z,101527.31
2023-05-17T01:44:37.726Z,101524.09
2023-05-17T01:47:31.432Z,101526.94
2023-05-17T01:50:19.664Z,101526.53
2023-05-17T01:53:11.652Z,101536.25
2023-05-17T01:56:10.445Z,101538.88
2023-05-17T01:58:57.073Z,101536.50
2023-05-17T02:01:42.767Z,101548.25
2023-05-17T02:04:30.113Z,101545.06
2023-05-17T02:07:15.675Z,101553.66
2023-05-17T02:10:00.852Z,101558.97
2023-05-17T02:12:46.336Z,101549.25
2023-05-17T02:15:32.499Z,101562.16
2023-05-17T02:18:17.559Z,101564.47
2023-05-17T02:21:03.003Z,101564.22
2023-05-17T02:23:48.255Z,101564.94
2023-05-17T02:26:33.584Z,101566.66
2023-05-17T02:29:18.962Z,101565.69
2023-05-17T02:32:04.408Z,101571.81
2023-05-17T02:34:49.847Z,101577.09
2023-05-17T02:37:34.753Z,101583.56
2023-05-17T02:40:20.574Z,101586.56
2023-05-17T02:43:05.493Z,101588.72
2023-05-17T02:45:50.965Z,101580.28
2023-05-17T02:48:35.799Z,101578.69
2023-05-17T02:51:21.150Z,101576.25
2023-05-17T02:54:06.519Z,101581.50
2023-05-17T02:56:52.036Z,101580.13
2023-05-17T02:59:37.478Z,101574.63
2023-05-17T03:02:22.881Z,101575.47
2023-05-17T03:05:08.513Z,101573.75
2023-05-17T03:07:53.404Z,101591.72
2023-05-17T03:10:38.799Z,101587.38
2023-05-17T03:13:24.029Z,101588.88
2023-05-17T03:16:09.337Z,101592.13
2023-05-17T03:18:54.925Z,101595.16
2023-05-17T03:21:40.124Z,101601.00
2023-05-17T03:24:25.366Z,101598.00
2023-05-17T03:27:10.764Z,101596.63
2023-05-17T03:29:56.027Z,101603.94
2023-05-17T03:32:41.969Z,101615.84
2023-05-17T03:35:27.321Z,101623.66
2023-05-17T03:38:12.919Z,101627.75
2023-05-17T03:40:58.455Z,101640.91
2023-05-17T03:43:43.620Z,101645.50
2023-05-17T03:46:29.069Z,101641.28
2023-05-17T03:49:14.723Z,101643.75
2023-05-17T03:51:59.697Z,101652.34
2023-05-17T03:54:46.313Z,101659.19
2023-05-17T03:57:33.388Z,101654.66
2023-05-17T04:00:18.585Z,101664.47
2023-05-17T04:03:03.841Z,101667.81
2023-05-17T04:05:49.467Z,101664.00
2023-05-17T04:08:35.137Z,101658.56
2023-05-17T04:11:20.590Z,101669.50
2023-05-17T04:14:06.164Z,101663.91
2023-05-17T04:16:51.344Z,101664.13
2023-05-17T04:19:36.726Z,101665.97
2023-05-17T04:22:22.145Z,101662.56
2023-05-17T04:25:07.937Z,101661.84
2023-05-17T04:27:53.118Z,101665.84
2023-05-17T04:30:43.172Z,101666.28
2023-05-17T04:33:28.339Z,101675.06
2023-05-17T04:36:13.599Z,101676.19
2023-05-17T04:38:58.690Z,101683.44
2023-05-17T04:41:43.980Z,101684.88
2023-05-17T04:44:29.544Z,101688.44
2023-05-17T04:47:14.824Z,101694.34
2023-05-17T04:50:00.009Z,101700.78
2023-05-17T04:52:48.521Z,101699.97
2023-05-17T04:55:33.906Z,101710.13
2023-05-17T04:58:19.182Z,101710.56
2023-05-17T05:01:05.581Z,101712.50
2023-05-17T05:03:50.597Z,101711.31
2023-05-17T05:06:35.930Z,101709.22
2023-05-17T05:09:21.385Z,101715.47
2023-05-17T05:12:07.058Z,101713.00
2023-05-17T05:14:52.432Z,101715.59
2023-05-17T05:17:37.906Z,101714.75
2023-05-17T05:20:24.669Z,101717.69
2023-05-17T05:23:11.695Z,101713.38
2023-05-17T05:25:57.234Z,101728.47
2023-05-17T05:28:42.599Z,101722.25
2023-05-17T05:31:28.140Z,101729.00
2023-05-17T05:34:13.513Z,101725.06
2023-05-17T05:36:58.714Z,101731.41
2023-05-17T05:39:44.040Z,101735.38
2023-05-17T05:42:29.424Z,101727.00
2023-05-17T05:45:14.548Z,101728.09
2023-05-17T05:47:59.891Z,101727.81
2023-05-17T05:50:45.367Z,101735.56
2023-05-17T05:53:30.422Z,101735.97
2023-05-17T05:56:15.689Z,101741.81
2023-05-17T05:59:01.136Z,101743.97
2023-05-17T06:01:46.846Z,101738.19
2023-05-17T06:04:43.805Z,101740.88
2023-05-17T06:07:29.964Z,101735.00
2023-05-17T06:10:14.906Z,101737.56
2023-05-17T06:13:00.362Z,101723.97
2023-05-17T06:15:45.540Z,101736.06
2023-05-17T06:18:30.832Z,101731.94
2023-05-17T06:21:16.325Z,101728.78
2023-05-17T06:24:02.875Z,101715.38
2023-05-17T06:26:50.018Z,101703.44
2023-05-17T06:29:35.786Z,101693.97
2023-05-17T06:32:20.666Z,101674.63
2023-05-17T06:35:06.652Z,101671.06
2023-05-17T06:37:52.049Z,101674.00
2023-05-17T06:40:37.279Z,101666.69
2023-05-17T06:43:23.036Z,101604.63
2023-05-17T06:46:08.662Z,101601.69
2023-05-17T06:48:54.034Z,101612.16
2023-05-17T06:51:39.585Z,101598.09
2023-05-17T06:54:25.041Z,101609.91
2023-05-17T06:57:10.198Z,101621.03
2023-05-17T06:59:55.590Z,101631.16
2023-05-17T07:02:41.015Z,101649.13
2023-05-17T07:05:26.592Z,101660.34
2023-05-17T07:08:11.431Z,101676.16
2023-05-17T07:10:57.154Z,101684.31
2023-05-17T07:13:42.447Z,101680.44
2023-05-17T07:16:27.935Z,101682.97
2023-05-17T07:19:13.494Z,101648.84
2023-05-17T07:21:58.810Z,101614.28
2023-05-17T07:24:44.635Z,101611.69
2023-05-17T07:27:30.243Z,101621.69
2023-05-17T07:30:15.265Z,101641.31
2023-05-17T07:33:00.838Z,101659.75
2023-05-17T07:35:46.164Z,101661.88
2023-05-17T07:38:31.905Z,101665.81
2023-05-17T07:41:17.044Z,101652.84
2023-05-17T07:44:02.317Z,101607.81
2023-05-17T07:46:49.943Z,101569.31
2023-05-17T07:49:34.997Z,101514.38
2023-05-17T07:52:20.362Z,101499.63
2023-05-17T07:55:05.742Z,101525.59
2023-05-17T07:57:51.071Z,101521.81
2023-05-17T08:00:36.434Z,101524.06
2023-05-17T08:03:21.455Z,101556.91
2023-05-17T08:06:07.075Z,101600.06
2023-05-17T08:08:52.318Z,101582.16
2023-05-17T08:11:37.580Z,101602.66
2023-05-17T08:14:23.806Z,101532.06
2023-05-17T08:17:09.377Z,101447.00
2023-05-17T08:19:54.888Z,101456.06
2023-05-17T08:22:40.067Z,101513.69
2023-05-17T08:25:25.612Z,101498.38
2023-05-17T08:28:10.648Z,101536.44
2023-05-17T08:30:55.696Z,101514.72
2023-05-17T08:33:41.324Z,101545.78
2023-05-17T08:36:26.573Z,101561.78
2023-05-17T08:39:11.998Z,101531.28
2023-05-17T08:41:57.387Z,101573.66
2023-05-17T08:44:42.384Z,101538.94
2023-05-17T08:47:28.978Z,101499.84
2023-05-17T08:50:13.870Z,101484.13
2023-05-17T08:52:59.611Z,101457.03
2023-05-17T08:55:46.955Z,101379.28
2023-05-17T08:58:47.984Z,101465.34
2023-05-17T09:01:42.812Z,101486.47
2023-05-17T09:04:29.656Z,101537.56
2023-05-17T09:07:17.183Z,101506.72
2023-05-17T09:10:02.699Z,101550.59
2023-05-17T09:12:48.537Z,101539.81
2023-05-17T09:15:33.594Z,101496.28
2023-05-17T09:18:19.611Z,101516.97
2023-05-17T09:21:05.386Z,101496.09
2023-05-17T09:24:05.509Z,101488.94
2023-05-17T09:26:52.321Z,101542.53
2023-05-17T09:29:39.385Z,101553.47
2023-05-17T09:32:24.448Z,101531.94
2023-05-17T09:35:10.333Z,101523.16
2023-05-17T09:38:10.167Z,101468.28
2023-05-17T09:40:55.470Z,101421.78
2023-05-17T09:43:40.801Z,101517.03
2023-05-17T09:46:26.034Z,101514.97
2023-05-17T09:49:11.297Z,101519.28
2023-05-17T09:51:56.678Z,101541.44
2023-05-17T09:54:41.647Z,101530.34
2023-05-17T09:57:29.017Z,101495.72
2023-05-17T10:00:15.940Z,101491.00
2023-05-17T10:03:03.810Z,101516.53
2023-05-17T10:05:51.604Z,101566.00
2023-05-17T10:08:38.450Z,101595.00
2023-05-17T10:11:30.212Z,101630.19
2023-05-17T10:14:18.816Z,101577.78
2023-05-17T10:17:04.561Z,101545.03
2023-05-17T10:19:50.956Z,101506.56
2023-05-17T10:22:37.538Z,101483.16
2023-05-17T10:25:23.789Z,101482.47
2023-05-17T10:28:10.982Z,101499.00
2023-05-17T10:30:58.961Z,101515.50
2023-05-17T10:33:47.191Z,101534.09
2023-05-17T10:36:33.790Z,101541.41
2023-05-17T10:39:21.428Z,101504.19
2023-05-17T10:42:14.657Z,101533.97
2023-05-17T10:45:01.607Z,101586.75
2023-05-17T10:47:46.581Z,101584.66
2023-05-17T10:50:32.334Z,101488.06
2023-05-17T10:53:17.815Z,101486.88
2023-05-17T10:56:03.365Z,101448.00
2023-05-17T10:58:48.694Z,101523.94
2023-05-17T11:01:53.646Z,101510.66
2023-05-17T11:04:50.173Z,101502.25
2023-05-17T11:07:35.623Z,101521.91
2023-05-17T11:10:21.481Z,101502.19
2023-05-17T11:13:25.284Z,101479.88
2023-05-17T11:16:10.545Z,101499.84
2023-05-17T11:19:06.259Z,101506.78
2023-05-17T11:21:51.752Z,101523.31
2023-05-17T11:24:42.182Z,101510.31
2023-05-17T11:27:35.665Z,101518.09
2023-05-17T11:30:34.400Z,101540.84
2023-05-17T11:33:32.324Z,101524.63
2023-05-17T11:36:20.508Z,101532.47
2023-05-17T11:39:13.830Z,101508.38
2023-05-17T11:41:58.972Z,101490.25
2023-05-17T11:44:44.430Z,101487.44
2023-05-17T11:47:30.098Z,101508.66
2023-05-17T11:50:15.471Z,101540.94
2023-05-17T11:53:00.841Z,101576.03
2023-05-17T11:55:51.019Z,101524.78
2023-05-17T11:58:36.946Z,101557.81
2023-05-17T12:01:22.091Z,101470.59
2023-05-17T12:04:07.542Z,101476.19
2023-05-17T12:06:56.487Z,101551.16
2023-05-17T12:09:44.736Z,101496.41
2023-05-17T12:12:30.317Z,101530.19
2023-05-17T12:15:19.031Z,101482.44
2023-05-17T12:18:04.524Z,101478.75
2023-05-17T12:20:53.962Z,101431.81
2023-05-17T12:23:41.040Z,101474.91
2023-05-17T12:26:26.487Z,101425.75
2023-05-17T12:29:12.890Z,101454.84
2023-05-17T12:31:59.318Z,101449.75
2023-05-17T12:34:45.364Z,101457.22
2023-05-17T12:37:30.663Z,101461.38
2023-05-17T12:40:15.647Z,101472.63
2023-05-17T12:43:02.390Z,101427.50
2023-05-17T12:45:47.763Z,101439.50
2023-05-17T12:48:38.192Z,101500.34
2023-05-17T12:51:23.838Z,101448.09
2023-05-17T12:54:09.133Z,101424.31
2023-05-17T12:56:54.524Z,101444.66
2023-05-17T12:59:47.322Z,101460.31
2023-05-17T13:02:32.593Z,101412.38
2023-05-17T13:05:18.457Z,101413.63
2023-05-17T13:08:20.072Z,101427.59
2023-05-17T13:11:10.035Z,101419.06
2023-05-17T13:13:55.287Z,101409.91
2023-05-17T13:16:40.898Z,101509.94
2023-05-17T13:19:26.609Z,101463.25
2023-05-17T13:22:11.813Z,101491.16
2023-05-17T13:24:56.946Z,101420.66
2023-05-17T13:27:42.381Z,101445.78
2023-05-17T13:30:27.767Z,101430.47
2023-05-17T13:33:13.062Z,101436.91
2023-05-17T13:35:58.564Z,101471.66
2023-05-17T13:38:43.760Z,101482.44
2023-05-17T13:41:29.289Z,101487.06
2023-05-17T13:44:15.187Z,101483.78
2023-05-17T13:47:00.559Z,101464.34
2023-05-17T13:49:45.861Z,101461.66
2023-05-17T13:52:31.233Z,101461.69
2023-05-17T13:55:16.598Z,101432.00
2023-05-17T13:58:01.624Z,101460.91
2023-05-17T14:00:46.935Z,101470.47
2023-05-17T14:03:32.448Z,101457.38
2023-05-17T14:06:18.333Z,101440.47
2023-05-17T14:09:03.736Z,101451.59
2023-05-17T14:11:49.208Z,101429.72
2023-05-17T14:14:34.610Z,101446.22
2023-05-17T14:17:19.508Z,101433.72
2023-05-17T14:20:05.680Z,101456.28
2023-05-17T14:22:50.874Z,101460.66
2023-05-17T14:25:37.559Z,101468.13
2023-05-17T14:28:22.897Z,101468.00
2023-05-17T14:31:09.296Z,101503.47
2023-05-17T14:33:54.588Z,101478.19
2023-05-17T14:36:40.158Z,101496.50
2023-05-17T14:39:25.584Z,101497.59
2023-05-17T14:42:11.014Z,101470.63
2023-05-17T14:44:56.457Z,101517.72
2023-05-17T14:47:41.654Z,101497.69
2023-05-17T14:50:27.302Z,101535.25
2023-05-17T14:53:12.904Z,101536.59
2023-05-17T14:55:58.460Z,101498.38
2023-05-17T14:58:43.609Z,101522.03
2023-05-17T15:01:29.012Z,101489.72
2023-05-17T15:04:14.441Z,101497.56
2023-05-17T15:06:59.784Z,101509.94
2023-05-17T15:09:45.036Z,101452.94
2023-05-17T15:12:30.730Z,101457.78
2023-05-17T15:15:15.913Z,101467.25
2023-05-17T15:18:01.092Z,101500.69
2023-05-17T15:20:46.424Z,101522.81
2023-05-17T15:23:31.727Z,101498.59
2023-05-17T15:26:17.122Z,101526.78
2023-05-17T15:29:02.143Z,101562.00
2023-05-17T15:31:47.461Z,101546.66
2023-05-17T15:34:32.723Z,101498.06
2023-05-17T15:37:17.563Z,101508.28
2023-05-17T15:40:10.226Z,101543.72
2023-05-17T15:42:55.477Z,101515.13
2023-05-17T15:45:40.627Z,101524.88
2023-05-17T15:48:25.882Z,101468.47
2023-05-17T15:51:11.097Z,101469.00
2023-05-17T15:53:56.512Z,101477.03
2023-05-17T15:56:41.356Z,101487.81
2023-05-17T15:59:26.130Z,101458.88
2023-05-17T16:02:11.493Z,101454.78
2023-05-17T16:04:56.775Z,101454.22
2023-05-17T16:07:41.641Z,101449.78
2023-05-17T16:10:27.166Z,101460.38
2023-05-17T16:13:12.571Z,101480.06
2023-05-17T16:15:58.536Z,101520.09
2023-05-17T16:18:43.698Z,101535.22
2023-05-17T16:21:29.354Z,101528.28
2023-05-17T16:24:14.677Z,101504.25
2023-05-17T16:27:00.141Z,101494.03
2023-05-17T16:29:45.027Z,101520.44
2023-05-17T16:32:30.525Z,101535.13
2023-05-17T16:35:16.679Z,101536.19
2023-05-17T16:38:01.618Z,101555.53
2023-05-17T16:40:47.184Z,101546.88
2023-05-17T16:43:32.403Z,101546.63
2023-05-17T16:46:17.651Z,101541.38
2023-05-17T16:49:02.992Z,101523.31
2023-05-17T16:51:48.024Z,101547.13
2023-05-17T16:54:34.703Z,101529.41
2023-05-17T16:57:19.997Z,101538.53
2023-05-17T17:00:06.025Z,101546.72
2023-05-17T17:02:51.286Z,101539.13
2023-05-17T17:05:36.736Z,101523.72
2023-05-17T17:08:22.082Z,101557.56
2023-05-17T17:11:07.060Z,101561.22
2023-05-17T17:13:52.258Z,101575.13
2023-05-17T17:16:38.248Z,101577.72
2023-05-17T17:19:23.579Z,101570.31
2023-05-17T17:22:08.927Z,101574.50
2023-05-17T17:24:53.839Z,101590.69
2023-05-17T17:27:39.232Z,101598.50
2023-05-17T17:30:24.668Z,101598.22
2023-05-17T17:33:09.988Z,101594.16
2023-05-17T17:35:55.703Z,101609.72
2023-05-17T17:38:40.829Z,101612.78
2023-05-17T17:41:25.712Z,101622.25
2023-05-17T17:44:11.055Z,101625.78
2023-05-17T17:46:56.023Z,101641.47
2023-05-17T17:49:41.358Z,101642.13
2023-05-17T17:52:26.781Z,101643.19
2023-05-17T17:55:12.101Z,101624.50
2023-05-17T17:57:56.865Z,101627.13
2023-05-17T18:00:41.736Z,101627.50
2023-05-17T18:03:27.248Z,101651.25
2023-05-17T18:06:12.694Z,101659.03
2023-05-17T18:08:57.649Z,101660.06
2023-05-17T18:11:42.980Z,101668.53
2023-05-17T18:14:28.040Z,101654.41
2023-05-17T18:17:13.424Z,101660.66
2023-05-17T18:19:58.340Z,101682.47
2023-05-17T18:22:43.877Z,101683.94
2023-05-17T18:25:29.192Z,101675.19
2023-05-17T18:28:14.597Z,101680.38
2023-05-17T18:30:59.862Z,101671.06
2023-05-17T18:33:45.753Z,101649.81
2023-05-17T18:36:30.750Z,101676.16
2023-05-17T18:39:16.276Z,101684.00
2023-05-17T18:42:01.564Z,101696.72
2023-05-17T18:44:47.252Z,101718.94
2023-05-17T18:47:32.443Z,101720.06
2023-05-17T18:50:17.769Z,101717.56
2023-05-17T18:53:03.128Z,101732.09
2023-05-17T18:55:48.510Z,101734.69
2023-05-17T18:58:33.377Z,101731.91
2023-05-17T19:01:18.612Z,101731.09
2023-05-17T19:04:03.768Z,101730.63
2023-05-17T19:06:49.028Z,101739.19
2023-05-17T19:09:34.014Z,101741.38
2023-05-17T19:12:19.222Z,101748.88
2023-05-17T19:15:04.860Z,101735.69
2023-05-17T19:17:50.267Z,101749.19
2023-05-17T19:20:35.684Z,101764.81
2023-05-17T19:23:20.918Z,101767.16
2023-05-17T19:26:05.913Z,101764.91
2023-05-17T19:28:50.757Z,101781.38
2023-05-17T19:31:36.138Z,101780.03
2023-05-17T19:34:21.618Z,101791.09
2023-05-17T19:37:06.591Z,101783.22
2023-05-17T19:39:52.100Z,101798.25
2023-05-17T19:42:37.005Z,101798.03
2023-05-17T19:45:22.369Z,101811.66
2023-05-17T19:48:07.875Z,101802.75
2023-05-17T19:50:54.964Z,101814.13
2023-05-17T19:53:52.421Z,101813.38
2023-05-17T19:56:38.329Z,101821.34
2023-05-17T19:59:23.279Z,101829.25
2023-05-17T20:02:08.173Z,101825.69
2023-05-17T20:04:53.032Z,101824.19
2023-05-17T20:07:37.905Z,101835.72
2023-05-17T20:10:22.884Z,101848.09
2023-05-17T20:13:07.774Z,101853.06
2023-05-17T20:15:52.753Z,101847.69
2023-05-17T20:18:42.273Z,101843.06
2023-05-17T20:21:27.856Z,101854.50
2023-05-17T20:24:13.096Z,101869.31
2023-05-17T20:26:57.926Z,101874.25
2023-05-17T20:29:43.345Z,101873.25
2023-05-17T20:32:29.131Z,101880.72
2023-05-17T20:35:14.188Z,101873.25
2023-05-17T20:37:59.443Z,101876.13
2023-05-17T20:40:44.839Z,101876.16
2023-05-17T20:43:30.150Z,101888.38
2023-05-17T20:46:16.172Z,101885.59
2023-05-17T20:49:01.215Z,101889.66
2023-05-17T20:51:46.833Z,101897.06
2023-05-17T20:54:31.859Z,101902.03
2023-05-17T20:57:16.973Z,101905.97
2023-05-17T21:00:03.243Z,101900.63
2023-05-17T21:02:48.714Z,101910.75
2023-05-17T21:05:33.970Z,101911.38
2023-05-17T21:08:19.337Z,101922.31
2023-05-17T21:11:04.518Z,101922.16
2023-05-17T21:13:50.046Z,101919.19
2023-05-17T21:16:35.207Z,101922.03
2023-05-17T21:19:20.670Z,101924.13
2023-05-17T21:22:05.831Z,101938.88
2023-05-17T21:24:52.180Z,101937.25
2023-05-17T21:27:38.089Z,101927.53
2023-05-17T21:30:23.875Z,101929.25
2023-05-17T21:33:08.955Z,101937.91
2023-05-17T21:35:54.094Z,101943.06
2023-05-17T21:38:39.673Z,101945.03
2023-05-17T21:41:24.850Z,101941.59
2023-05-17T21:44:09.837Z,101953.06
2023-05-17T21:46:56.882Z,101946.81
2023-05-17T21:49:42.184Z,101959.41
2023-05-17T21:52:27.219Z,101951.91
2023-05-17T21:55:11.976Z,101958.69
2023-05-17T21:57:57.049Z,101958.53
2023-05-17T22:00:42.421Z,101967.50
2023-05-17T22:03:27.570Z,101970.84
2023-05-17T22:06:12.764Z,101978.28
2023-05-17T22:08:58.024Z,101985.75
2023-05-17T22:11:42.873Z,101976.16
2023-05-17T22:14:28.487Z,101977.56
2023-05-17T22:17:13.719Z,101981.75
2023-05-17T22:20:01.308Z,101977.19
2023-05-17T22:22:46.212Z,101977.41
2023-05-17T22:25:31.091Z,101987.50
2023-05-17T22:28:16.562Z,101987.72
2023-05-17T22:31:02.396Z,101991.03
2023-05-17T22:33:50.376Z,101993.00
2023-05-17T22:36:35.384Z,101992.06
2023-05-17T22:39:20.778Z,101986.75
2023-05-17T22:42:07.338Z,101980.44
2023-05-17T22:44:52.434Z,101992.50
2023-05-17T22:47:38.172Z,101995.13
2023-05-17T22:50:23.447Z,102007.28
2023-05-17T22:53:09.080Z,102013.47
2023-05-17T22:55:54.393Z,102017.19
2023-05-17T22:58:39.488Z,102022.50
2023-05-17T23:01:24.992Z,102041.84
2023-05-17T23:04:10.238Z,102053.44
2023-05-17T23:06:56.976Z,102052.16
2023-05-17T23:09:42.501Z,102050.78
2023-05-17T23:12:27.301Z,102041.53
2023-05-17T23:15:12.858Z,102032.94
2023-05-17T23:17:58.267Z,102043.66
2023-05-17T23:20:44.305Z,102045.66
2023-05-17T23:23:29.866Z,102049.13
2023-05-17T23:26:14.794Z,102037.06
2023-05-17T23:28:59.913Z,102041.25
2023-05-17T23:31:45.197Z,102041.88
2023-05-17T23:34:30.672Z,102034.47
2023-05-17T23:37:16.861Z,102043.00
2023-05-17T23:40:03.218Z,102042.31
2023-05-17T23:42:48.587Z,102035.72
2023-05-17T23:45:33.490Z,102034.75
2023-05-17T23:48:18.957Z,102030.88
2023-05-17T23:51:04.659Z,102036.19
2023-05-17T23:53:49.827Z,102037.25
2023-05-17T23:56:34.912Z,102043.06
2023-05-17T23:59:20.411Z,102042.91
